createdAt,value
2023-08-30T00:00:54.164Z,21.17
2023-08-30T00:03:20.922Z,22.65
2023-08-30T00:05:47.415Z,21.73
2023-08-30T00:08:20.679Z,23.73
2023-08-30T00:10:47.559Z,22.50
2023-08-30T00:13:14.176Z,26.77
2023-08-30T00:15:40.719Z,24.85
2023-08-30T00:18:07.564Z,20.80
2023-08-30T00:20:35.148Z,26.17
2023-08-30T00:23:01.768Z,27.38
2023-08-30T00:25:28.614Z,23.65
2023-08-30T00:27:55.136Z,26.10
2023-08-30T00:30:21.668Z,25.33
2023-08-30T00:32:48.183Z,27.67
2023-08-30T00:35:14.807Z,29.02
2023-08-30T00:37:41.396Z,27.08
2023-08-30T00:40:08.333Z,29.58
2023-08-30T00:42:34.942Z,23.10
2023-08-30T00:45:01.413Z,24.35
2023-08-30T00:47:28.544Z,23.90
2023-08-30T00:49:55.372Z,24.00
2023-08-30T00:52:22.082Z,25.45
2023-08-30T00:54:49.014Z,25.60
2023-08-30T00:57:15.941Z,24.98
2023-08-30T00:59:42.455Z,27.35
2023-08-30T01:02:09.500Z,24.33
2023-08-30T01:04:36.040Z,28.17
2023-08-30T01:07:02.603Z,24.10
2023-08-30T01:09:29.257Z,28.23
2023-08-30T01:12:05.474Z,22.73
2023-08-30T01:14:53.522Z,18.40
2023-08-30T01:17:22.989Z,23.80
2023-08-30T01:19:57.893Z,31.33
2023-08-30T01:22:44.804Z,23.95
2023-08-30T01:25:20.965Z,24.95
2023-08-30T01:27:49.481Z,22.77
2023-08-30T01:30:16.990Z,27.45
2023-08-30T01:32:44.548Z,26.35
2023-08-30T01:35:11.714Z,24.55
2023-08-30T01:37:39.419Z,24.48
2023-08-30T01:40:08.369Z,23.77
2023-08-30T01:42:36.956Z,26.05
2023-08-30T01:45:04.674Z,28.58
2023-08-30T01:47:32.499Z,23.48
2023-08-30T01:49:59.638Z,27.65
2023-08-30T01:52:27.842Z,21.80
2023-08-30T01:54:54.697Z,22.77
2023-08-30T01:57:21.500Z,26.30
2023-08-30T01:59:48.085Z,18.50
2023-08-30T02:02:14.636Z,24.63
2023-08-30T02:04:41.418Z,26.58
2023-08-30T02:07:18.522Z,22.02
2023-08-30T02:09:58.796Z,28.00
2023-08-30T02:12:28.182Z,21.45
2023-08-30T02:14:56.059Z,22.08
2023-08-30T02:17:23.593Z,24.58
2023-08-30T02:19:50.224Z,26.23
2023-08-30T02:22:16.730Z,27.65
2023-08-30T02:24:43.171Z,27.52
2023-08-30T02:27:09.623Z,26.38
2023-08-30T02:29:36.097Z,26.48
2023-08-30T02:32:02.845Z,25.88
2023-08-30T02:34:29.356Z,22.33
2023-08-30T02:36:55.887Z,23.83
2023-08-30T02:39:22.438Z,27.73
2023-08-30T02:41:48.977Z,25.55
2023-08-30T02:44:15.501Z,23.05
2023-08-30T02:46:42.804Z,26.02
2023-08-30T02:49:10.472Z,24.27
2023-08-30T02:51:36.941Z,29.13
2023-08-30T02:54:03.825Z,25.95
2023-08-30T02:56:30.636Z,25.27
2023-08-30T02:58:57.121Z,25.77
2023-08-30T03:01:23.703Z,24.23
2023-08-30T03:03:50.217Z,22.40
2023-08-30T03:06:16.676Z,21.63
2023-08-30T03:08:43.147Z,25.88
2023-08-30T03:11:14.050Z,25.48
2023-08-30T03:13:40.742Z,21.17
2023-08-30T03:16:17.196Z,22.98
2023-08-30T03:18:44.870Z,25.52
2023-08-30T03:21:12.329Z,23.83
2023-08-30T03:23:39.442Z,27.45
2023-08-30T03:26:10.664Z,22.80
2023-08-30T03:31:21.443Z,23.38
2023-08-30T03:33:49.109Z,22.92
2023-08-30T03:36:17.416Z,24.73
2023-08-30T03:38:44.914Z,25.90
2023-08-30T03:41:12.548Z,21.63
2023-08-30T03:43:39.282Z,22.20
2023-08-30T03:46:05.877Z,23.08
2023-08-30T03:48:33.160Z,20.48
2023-08-30T03:50:59.804Z,23.33
2023-08-30T03:53:26.408Z,23.20
2023-08-30T03:55:52.966Z,20.25
2023-08-30T03:58:20.862Z,21.63
2023-08-30T04:00:47.485Z,20.35
2023-08-30T04:03:15.807Z,20.92
2023-08-30T04:05:43.018Z,20.40
2023-08-30T04:08:10.710Z,19.08
2023-08-30T04:10:38.554Z,20.30
2023-08-30T04:13:05.934Z,22.90
2023-08-30T04:15:39.316Z,22.55
2023-08-30T04:18:07.624Z,20.15
2023-08-30T04:20:35.197Z,21.77
2023-08-30T04:23:02.778Z,25.48
2023-08-30T04:25:30.395Z,23.60
2023-08-30T04:27:57.113Z,18.48
2023-08-30T04:30:23.797Z,21.30
2023-08-30T04:32:50.409Z,24.23
2023-08-30T04:35:17.019Z,20.35
2023-08-30T04:37:43.920Z,19.17
2023-08-30T04:40:11.025Z,19.98
2023-08-30T04:42:38.925Z,22.05
2023-08-30T04:45:06.219Z,22.23
2023-08-30T04:47:33.348Z,24.13
2023-08-30T04:50:00.657Z,18.13
2023-08-30T04:52:27.321Z,19.20
2023-08-30T04:54:54.028Z,20.02
2023-08-30T04:57:20.656Z,19.02
2023-08-30T04:59:47.388Z,21.25
2023-08-30T05:02:14.080Z,21.67
2023-08-30T05:04:40.766Z,18.20
2023-08-30T05:07:07.568Z,16.80
2023-08-30T05:09:35.512Z,17.45
2023-08-30T05:12:02.361Z,20.35
2023-08-30T05:14:28.836Z,18.60
2023-08-30T05:16:55.449Z,16.02
2023-08-30T05:19:22.094Z,17.10
2023-08-30T05:21:52.334Z,16.30
2023-08-30T05:24:19.113Z,14.98
2023-08-30T05:26:47.970Z,14.15
2023-08-30T05:29:16.317Z,18.30
2023-08-30T05:31:43.365Z,16.23
2023-08-30T05:34:10.560Z,16.88
2023-08-30T05:36:37.109Z,17.50
2023-08-30T05:39:04.409Z,17.42
2023-08-30T05:41:31.641Z,19.15
2023-08-30T05:43:58.131Z,16.90
2023-08-30T05:46:24.937Z,17.55
2023-08-30T05:48:51.572Z,16.85
2023-08-30T05:51:18.134Z,19.08
2023-08-30T05:53:44.778Z,16.33
2023-08-30T05:56:11.245Z,18.73
2023-08-30T05:58:39.130Z,15.77
2023-08-30T06:01:07.699Z,15.57
2023-08-30T06:03:34.382Z,15.95
2023-08-30T06:06:02.741Z,14.95
2023-08-30T06:08:29.382Z,15.35
2023-08-30T06:10:56.164Z,15.07
2023-08-30T06:13:22.637Z,14.45
2023-08-30T06:15:53.122Z,17.73
2023-08-30T06:18:22.615Z,15.68
2023-08-30T06:20:50.002Z,14.95
2023-08-30T06:23:20.541Z,16.10
2023-08-30T06:25:54.874Z,16.00
2023-08-30T06:28:24.700Z,13.88
2023-08-30T06:30:51.708Z,12.88
2023-08-30T06:33:18.676Z,13.55
2023-08-30T06:35:45.214Z,16.23
2023-08-30T06:38:12.096Z,16.48
2023-08-30T06:40:44.678Z,17.02
2023-08-30T06:43:11.130Z,17.50
2023-08-30T06:45:39.711Z,17.13
2023-08-30T06:48:09.938Z,15.82
2023-08-30T06:50:36.804Z,16.35
2023-08-30T06:53:04.345Z,17.00
2023-08-30T06:55:30.928Z,16.05
2023-08-30T06:57:59.773Z,13.57
2023-08-30T07:00:26.299Z,16.73
2023-08-30T07:02:52.776Z,20.83
2023-08-30T07:05:19.380Z,14.43
2023-08-30T07:07:45.883Z,15.75
2023-08-30T07:10:12.332Z,16.60
2023-08-30T07:12:38.859Z,14.50
2023-08-30T07:15:06.052Z,20.67
2023-08-30T07:17:46.723Z,22.73
2023-08-30T07:20:18.948Z,15.88
2023-08-30T07:22:45.487Z,14.73
2023-08-30T07:25:13.228Z,17.58
2023-08-30T07:27:39.822Z,13.85
2023-08-30T07:30:07.106Z,13.73
2023-08-30T07:32:34.027Z,15.48
2023-08-30T07:35:00.651Z,16.00
2023-08-30T07:37:27.209Z,13.93
2023-08-30T07:39:54.389Z,15.23
2023-08-30T07:42:20.992Z,14.63
2023-08-30T07:44:47.810Z,12.63
2023-08-30T07:47:14.395Z,15.00
2023-08-30T07:49:42.100Z,13.80
2023-08-30T07:52:11.780Z,14.18
2023-08-30T07:54:40.061Z,14.40
2023-08-30T07:57:07.197Z,14.23
2023-08-30T07:59:37.817Z,13.30
2023-08-30T08:02:08.230Z,17.58
2023-08-30T08:04:36.063Z,15.07
2023-08-30T08:07:03.543Z,13.35
2023-08-30T08:09:30.072Z,15.40
2023-08-30T08:11:57.373Z,14.15
2023-08-30T08:14:26.436Z,14.88
2023-08-30T08:16:53.068Z,14.27
2023-08-30T08:19:23.558Z,13.40
2023-08-30T08:21:51.994Z,10.50
2023-08-30T08:24:18.458Z,10.20
2023-08-30T08:26:45.000Z,13.13
2023-08-30T08:29:11.932Z,14.00
2023-08-30T08:31:38.492Z,15.05
2023-08-30T08:34:13.070Z,13.57
2023-08-30T08:36:40.566Z,13.57
2023-08-30T08:39:07.634Z,14.38
2023-08-30T08:41:41.284Z,13.50
2023-08-30T08:44:08.553Z,11.80
2023-08-30T08:46:40.133Z,13.65
2023-08-30T08:49:19.193Z,12.75
2023-08-30T08:51:52.260Z,12.80
2023-08-30T08:54:19.419Z,13.15
2023-08-30T08:56:47.125Z,15.05
2023-08-30T08:59:16.816Z,12.60
2023-08-30T09:01:46.605Z,14.25
2023-08-30T09:04:14.764Z,15.27
2023-08-30T09:06:42.440Z,13.25
2023-08-30T09:09:09.809Z,11.00
2023-08-30T09:11:50.257Z,15.38
2023-08-30T09:14:19.054Z,11.18
2023-08-30T09:17:02.755Z,13.95
2023-08-30T09:19:30.438Z,12.32
2023-08-30T09:21:58.567Z,12.25
2023-08-30T09:24:26.125Z,10.10
2023-08-30T09:26:55.359Z,9.85
2023-08-30T09:29:24.535Z,10.82
2023-08-30T09:31:57.168Z,9.18
2023-08-30T09:34:27.282Z,8.77
2023-08-30T09:36:54.230Z,8.85
2023-08-30T09:39:21.047Z,9.82
2023-08-30T09:41:49.969Z,8.52
2023-08-30T09:44:19.092Z,10.88
2023-08-30T09:46:50.935Z,11.63
2023-08-30T09:49:23.335Z,12.05
2023-08-30T09:54:42.934Z,9.75
2023-08-30T09:57:09.967Z,10.50
2023-08-30T09:59:37.069Z,10.63
2023-08-30T10:02:04.059Z,8.32
2023-08-30T10:04:31.018Z,8.10
2023-08-30T10:06:59.224Z,9.77
2023-08-30T10:09:26.329Z,7.80
2023-08-30T10:11:52.892Z,9.43
2023-08-30T10:14:19.470Z,11.55
2023-08-30T10:16:49.998Z,9.43
2023-08-30T10:19:30.042Z,8.20
2023-08-30T10:22:10.163Z,10.70
2023-08-30T10:24:57.169Z,8.85
2023-08-30T10:27:32.398Z,8.35
2023-08-30T10:30:02.405Z,8.75
2023-08-30T10:32:29.250Z,9.63
2023-08-30T10:34:55.739Z,8.95
2023-08-30T10:37:27.836Z,10.70
2023-08-30T10:39:54.500Z,9.77
2023-08-30T10:42:24.024Z,8.90
2023-08-30T10:45:13.282Z,10.05
2023-08-30T10:47:42.170Z,7.80
2023-08-30T10:50:12.047Z,8.45
2023-08-30T10:52:38.894Z,7.22
2023-08-30T10:55:10.138Z,8.45
2023-08-30T10:57:38.098Z,8.27
2023-08-30T11:00:09.121Z,6.18
2023-08-30T11:02:39.808Z,8.13
2023-08-30T11:05:08.137Z,6.60
2023-08-30T11:07:35.069Z,6.43
2023-08-30T11:10:01.686Z,5.13
2023-08-30T11:12:28.371Z,5.75
2023-08-30T11:14:55.450Z,5.03
2023-08-30T11:17:22.186Z,6.90
2023-08-30T11:19:57.916Z,5.85
2023-08-30T11:22:25.095Z,7.53
2023-08-30T11:24:51.627Z,5.68
2023-08-30T11:27:18.909Z,5.40
2023-08-30T11:29:45.624Z,4.82
2023-08-30T11:32:12.121Z,6.28
2023-08-30T11:34:38.622Z,5.97
2023-08-30T11:37:05.232Z,6.20
2023-08-30T11:39:32.122Z,5.38
2023-08-30T11:42:03.056Z,6.13
2023-08-30T11:44:40.211Z,5.65
2023-08-30T11:47:06.696Z,5.72
2023-08-30T11:49:35.196Z,7.72
2023-08-30T11:52:01.805Z,7.32
2023-08-30T11:54:28.577Z,8.82
2023-08-30T11:56:55.136Z,7.05
2023-08-30T11:59:23.980Z,5.18
2023-08-30T12:01:53.420Z,6.43
2023-08-30T12:04:20.091Z,5.28
2023-08-30T12:06:56.005Z,6.97
2023-08-30T12:09:25.362Z,7.15
2023-08-30T12:11:51.957Z,6.07
2023-08-30T12:14:18.473Z,4.75
2023-08-30T12:16:47.539Z,5.40
2023-08-30T12:19:15.366Z,6.35
2023-08-30T12:21:45.241Z,7.20
2023-08-30T12:24:12.009Z,6.32
2023-08-30T12:26:39.395Z,9.60
2023-08-30T12:29:09.118Z,6.10
2023-08-30T12:31:35.753Z,6.63
2023-08-30T12:34:02.295Z,7.57
2023-08-30T12:36:28.803Z,5.90
2023-08-30T12:38:55.301Z,6.28
2023-08-30T12:41:26.403Z,6.05
2023-08-30T12:43:53.029Z,6.95
2023-08-30T12:46:19.499Z,5.80
2023-08-30T12:48:46.054Z,6.72
2023-08-30T12:51:35.298Z,5.68
2023-08-30T12:54:02.020Z,6.55
2023-08-30T12:56:28.571Z,6.03
2023-08-30T12:58:55.032Z,7.18
2023-08-30T13:01:21.700Z,6.57
2023-08-30T13:03:48.221Z,6.78
2023-08-30T13:06:15.012Z,6.45
2023-08-30T13:08:41.528Z,5.35
2023-08-30T13:11:07.971Z,5.80
2023-08-30T13:13:34.465Z,6.38
2023-08-30T13:16:00.971Z,5.72
2023-08-30T13:18:27.418Z,6.13
2023-08-30T13:20:56.818Z,5.60
2023-08-30T13:23:23.320Z,5.32
2023-08-30T13:25:52.602Z,5.70
2023-08-30T13:28:19.049Z,4.68
2023-08-30T13:30:46.835Z,5.32
2023-08-30T13:33:14.245Z,5.28
2023-08-30T13:35:41.149Z,6.13
2023-08-30T13:38:07.666Z,7.03
2023-08-30T13:40:34.206Z,5.55
2023-08-30T13:43:00.801Z,5.40
2023-08-30T13:45:27.297Z,7.78
2023-08-30T13:47:56.093Z,6.60
2023-08-30T13:50:22.727Z,4.80
2023-08-30T13:52:49.222Z,4.75
2023-08-30T13:55:15.802Z,4.95
2023-08-30T13:57:42.265Z,4.53
2023-08-30T14:00:11.211Z,6.35
2023-08-30T14:02:38.101Z,4.85
2023-08-30T14:05:05.057Z,4.47
2023-08-30T14:07:31.639Z,4.90
2023-08-30T14:09:58.959Z,4.45
2023-08-30T14:12:25.556Z,3.72
2023-08-30T14:14:53.062Z,4.50
2023-08-30T14:17:21.129Z,4.13
2023-08-30T14:19:47.830Z,5.55
2023-08-30T14:22:14.482Z,4.65
2023-08-30T14:24:57.450Z,6.00
2023-08-30T14:27:27.946Z,5.97
2023-08-30T14:29:54.560Z,4.38
2023-08-30T14:32:21.057Z,5.43
2023-08-30T14:34:47.515Z,4.47
2023-08-30T14:37:14.047Z,4.13
2023-08-30T14:39:40.575Z,6.10
2023-08-30T14:42:07.267Z,4.40
2023-08-30T14:44:33.762Z,4.95
2023-08-30T14:47:00.445Z,5.95
2023-08-30T14:49:27.060Z,6.25
2023-08-30T14:51:53.570Z,4.60
2023-08-30T14:54:20.429Z,4.15
2023-08-30T14:56:46.966Z,4.93
2023-08-30T14:59:13.491Z,4.82
2023-08-30T15:01:40.435Z,4.53
2023-08-30T15:04:07.214Z,5.70
2023-08-30T15:06:33.830Z,4.75
2023-08-30T15:09:01.636Z,3.70
2023-08-30T15:11:28.132Z,6.05
2023-08-30T15:13:54.604Z,5.28
2023-08-30T15:16:21.052Z,5.93
2023-08-30T15:18:47.604Z,5.50
2023-08-30T15:21:14.734Z,4.43
2023-08-30T15:23:41.306Z,5.75
2023-08-30T15:26:08.036Z,4.75
2023-08-30T15:28:34.714Z,4.28
2023-08-30T15:31:01.181Z,6.35
2023-08-30T15:33:27.860Z,4.55
2023-08-30T15:35:58.865Z,4.60
2023-08-30T15:38:25.376Z,4.55
2023-08-30T15:40:55.162Z,4.68
2023-08-30T15:43:21.706Z,4.05
2023-08-30T15:45:48.439Z,5.60
2023-08-30T15:48:15.016Z,4.75
2023-08-30T15:50:43.355Z,4.18
2023-08-30T15:53:10.654Z,4.30
2023-08-30T15:55:37.124Z,4.55
2023-08-30T15:58:03.712Z,5.25
2023-08-30T16:00:30.338Z,4.78
2023-08-30T16:02:59.037Z,3.88
2023-08-30T16:05:25.781Z,4.53
2023-08-30T16:07:52.467Z,4.65
2023-08-30T16:10:19.187Z,4.28
2023-08-30T16:12:45.725Z,4.40
2023-08-30T16:15:12.428Z,5.10
2023-08-30T16:17:38.921Z,4.03
2023-08-30T16:20:06.456Z,3.20
2023-08-30T16:22:34.633Z,3.95
2023-08-30T16:25:01.167Z,4.05
2023-08-30T16:27:27.694Z,3.45
2023-08-30T16:29:54.147Z,4.50
2023-08-30T16:32:20.806Z,3.58
2023-08-30T16:34:50.620Z,4.55
2023-08-30T16:37:17.415Z,3.15
2023-08-30T16:39:43.945Z,5.10
2023-08-30T16:42:10.412Z,4.30
2023-08-30T16:44:37.941Z,4.93
2023-08-30T16:47:04.899Z,4.05
2023-08-30T16:49:31.562Z,4.78
2023-08-30T16:51:58.081Z,4.13
2023-08-30T16:54:24.673Z,4.40
2023-08-30T16:56:51.400Z,3.63
2023-08-30T16:59:17.952Z,4.13
2023-08-30T17:01:44.423Z,4.50
2023-08-30T17:04:15.335Z,3.40
2023-08-30T17:06:43.899Z,4.78
2023-08-30T17:09:10.418Z,4.28
2023-08-30T17:11:39.398Z,4.93
2023-08-30T17:14:06.342Z,4.32
2023-08-30T17:16:32.852Z,5.00
2023-08-30T17:18:59.399Z,3.88
2023-08-30T17:21:25.848Z,3.40
2023-08-30T17:23:52.418Z,4.28
2023-08-30T17:26:19.910Z,4.15
2023-08-30T17:28:46.413Z,3.90
2023-08-30T17:31:12.911Z,3.83
2023-08-30T17:33:40.330Z,4.00
2023-08-30T17:36:07.415Z,3.60
2023-08-30T17:38:34.003Z,7.30
2023-08-30T17:41:00.510Z,4.53
2023-08-30T17:43:26.978Z,4.30
2023-08-30T17:45:53.425Z,4.40
2023-08-30T17:48:20.196Z,3.70
2023-08-30T17:50:46.951Z,4.88
2023-08-30T17:53:14.501Z,5.55
2023-08-30T17:55:41.463Z,7.28
2023-08-30T17:58:08.866Z,4.85
2023-08-30T18:00:35.570Z,5.28
2023-08-30T18:03:02.700Z,5.18
2023-08-30T18:05:29.180Z,6.32
2023-08-30T18:07:58.758Z,4.68
2023-08-30T18:10:25.694Z,4.95
2023-08-30T18:12:52.598Z,5.25
2023-08-30T18:15:19.230Z,6.28
2023-08-30T18:17:45.824Z,6.78
2023-08-30T18:20:15.571Z,5.43
2023-08-30T18:22:43.180Z,9.00
2023-08-30T18:25:10.382Z,5.47
2023-08-30T18:27:37.574Z,8.80
2023-08-30T18:30:05.687Z,5.88
2023-08-30T18:32:33.326Z,5.60
2023-08-30T18:34:59.995Z,6.40
2023-08-30T18:37:26.541Z,4.85
2023-08-30T18:39:53.124Z,7.82
2023-08-30T18:42:19.623Z,7.05
2023-08-30T18:44:47.862Z,5.95
2023-08-30T18:47:18.691Z,5.10
2023-08-30T18:49:45.302Z,5.00
2023-08-30T18:52:11.974Z,5.40
2023-08-30T18:54:44.674Z,7.20
2023-08-30T18:57:12.419Z,6.35
2023-08-30T18:59:43.735Z,6.53
2023-08-30T19:02:10.368Z,6.00
2023-08-30T19:04:36.918Z,6.90
2023-08-30T19:07:05.007Z,6.38
2023-08-30T19:09:32.515Z,5.40
2023-08-30T19:11:59.022Z,5.57
2023-08-30T19:14:26.658Z,7.20
2023-08-30T19:16:53.255Z,7.22
2023-08-30T19:19:19.780Z,5.80
2023-08-30T19:21:46.324Z,7.28
2023-08-30T19:24:12.800Z,7.25
2023-08-30T19:26:39.438Z,6.72
2023-08-30T19:29:05.935Z,6.43
2023-08-30T19:31:34.792Z,6.60
2023-08-30T19:34:01.633Z,6.50
2023-08-30T19:36:30.421Z,6.97
2023-08-30T19:38:57.482Z,6.95
2023-08-30T19:41:27.910Z,6.95
2023-08-30T19:43:55.793Z,12.23
2023-08-30T19:46:25.841Z,9.70
2023-08-30T19:48:52.355Z,11.07
2023-08-30T19:51:20.056Z,6.75
2023-08-30T19:53:50.048Z,7.00
2023-08-30T19:56:16.704Z,7.43
2023-08-30T19:58:43.865Z,8.02
2023-08-30T20:01:10.597Z,9.32
2023-08-30T20:03:38.253Z,7.28
2023-08-30T20:06:04.875Z,8.63
2023-08-30T20:08:31.598Z,8.25
2023-08-30T20:11:04.377Z,9.07
2023-08-30T20:13:31.368Z,9.55
2023-08-30T20:16:02.544Z,8.27
2023-08-30T20:18:29.378Z,8.48
2023-08-30T20:20:56.465Z,9.10
2023-08-30T20:23:23.828Z,9.15
2023-08-30T20:25:51.189Z,10.32
2023-08-30T20:28:18.605Z,8.18
2023-08-30T20:30:48.550Z,9.15
2023-08-30T20:33:15.103Z,8.52
2023-08-30T20:35:41.936Z,8.60
2023-08-30T20:38:08.603Z,9.45
2023-08-30T20:40:35.095Z,8.98
2023-08-30T20:43:01.907Z,9.10
2023-08-30T20:45:28.436Z,8.10
2023-08-30T20:47:54.993Z,6.93
2023-08-30T20:50:21.698Z,8.43
2023-08-30T20:52:49.261Z,11.68
2023-08-30T20:55:19.280Z,11.88
2023-08-30T20:57:50.509Z,9.00
2023-08-30T21:00:17.105Z,10.45
2023-08-30T21:02:43.697Z,8.30
2023-08-30T21:05:10.228Z,11.27
2023-08-30T21:07:36.779Z,9.10
2023-08-30T21:10:04.586Z,9.27
2023-08-30T21:12:31.085Z,8.73
2023-08-30T21:14:57.608Z,10.32
2023-08-30T21:17:24.114Z,12.48
2023-08-30T21:19:50.608Z,13.52
2023-08-30T21:22:17.130Z,9.85
2023-08-30T21:24:43.611Z,12.68
2023-08-30T21:27:10.177Z,9.73
2023-08-30T21:29:36.670Z,10.95
2023-08-30T21:32:04.824Z,10.70
2023-08-30T21:34:32.341Z,10.65
2023-08-30T21:36:58.814Z,9.95
2023-08-30T21:39:25.331Z,10.02
2023-08-30T21:41:51.778Z,10.55
2023-08-30T21:44:18.228Z,11.52
2023-08-30T21:46:45.193Z,9.43
2023-08-30T21:49:11.757Z,9.98
2023-08-30T21:51:38.316Z,11.50
2023-08-30T21:54:06.031Z,14.23
2023-08-30T21:56:33.101Z,11.23
2023-08-30T21:58:59.621Z,12.82
2023-08-30T22:01:26.202Z,11.60
2023-08-30T22:03:53.192Z,14.00
2023-08-30T22:06:20.924Z,12.38
2023-08-30T22:08:47.577Z,11.57
2023-08-30T22:11:14.089Z,13.38
2023-08-30T22:13:40.588Z,13.32
2023-08-30T22:16:07.205Z,11.85
2023-08-30T22:18:33.698Z,12.52
2023-08-30T22:21:00.978Z,14.15
2023-08-30T22:23:27.474Z,13.25
2023-08-30T22:25:53.928Z,14.63
2023-08-30T22:28:20.458Z,10.85
2023-08-30T22:30:46.995Z,13.20
2023-08-30T22:33:13.852Z,13.77
2023-08-30T22:35:40.717Z,15.98
2023-08-30T22:38:07.267Z,13.90
2023-08-30T22:40:33.766Z,11.27
2023-08-30T22:43:00.269Z,11.63
2023-08-30T22:45:29.588Z,15.32
2023-08-30T22:47:56.823Z,11.73
2023-08-30T22:50:23.645Z,15.38
2023-08-30T22:52:51.065Z,14.10
2023-08-30T22:55:18.560Z,10.63
2023-08-30T22:57:45.157Z,11.55
2023-08-30T23:00:11.983Z,11.50
2023-08-30T23:02:39.023Z,12.93
2023-08-30T23:05:07.271Z,14.75
2023-08-30T23:07:33.954Z,13.90
2023-08-30T23:10:02.085Z,14.00
2023-08-30T23:12:28.698Z,14.02
2023-08-30T23:14:57.277Z,11.65
2023-08-30T23:17:24.976Z,14.20
2023-08-30T23:19:51.542Z,12.00
2023-08-30T23:22:18.031Z,12.90
2023-08-30T23:24:44.549Z,14.00
2023-08-30T23:27:11.256Z,12.55
2023-08-30T23:29:37.792Z,12.95
2023-08-30T23:32:04.501Z,14.82
2023-08-30T23:34:31.135Z,13.52
2023-08-30T23:36:57.681Z,12.02
2023-08-30T23:39:24.184Z,14.15
2023-08-30T23:41:50.692Z,16.15
2023-08-30T23:44:17.130Z,19.50
2023-08-30T23:46:43.728Z,16.40
2023-08-30T23:49:10.377Z,12.07
2023-08-30T23:51:36.908Z,12.73
2023-08-30T23:54:04.076Z,14.45
2023-08-30T23:56:30.994Z,13.93
2023-08-30T23:58:57.466Z,12.02
